Other Surface Observations
Issued by NWS Great Falls, MT

Home | Current Version | Previous Version | Text Only | Print | Product List | Glossary On
Versions: 1 2 3 4 5 6 7 8 9 10 11 12 13 14 15 16 17 18 19 20 21 22 23 24 25 26 27 28 29 30 31 32 33 34 35 36 37 38 39 40 41 42 43 44 45 46 47 48 49 50
000
SXUS55 KTFX 230551
OSOTFX
AREA AWOS OBSERVATIONS
NATIONAL WEATHER SERVICE GREAT FALLS MT
1150 PM MDT TUE JUL 22 2014

METAR KPWD 230545Z AUTO 05004KT 10SM 19/17 A3026 RMK PLENTYWOOD
METAR KPO1 230545Z AUTO 31005KT 19/16 A3023 RMK POPLAR
METAR K1S3 230545Z AUTO 08004KT 10SM 21/17 A3019 RMK FORSYTH
METAR K79S 230545Z AUTO 09008G14KT 10SM 24/12 A3016 RMK FORT BENTON
METAR KEKS 230545Z AUTO 00000KT 10SM 16/08 A3031 RMK ENNIS
METAR K38S 230545Z AUTO 00000KT 10SM 14/12 A3026 RMK DEER LODGE
METAR K3U3 230545Z AUTO 00000KT 16/11 A3024 RMK ANACONDA
METAR K6S5 230545Z AUTO 00000KT 10SM 19/10 A3012 RMK HAMILTON
METAR KS59 230545Z AUTO 00000KT 10SM 17/13 A3018 RMK LIBBY
METAR K88M 230545Z AUTO 07003KT 10SM 14/10 A3016 RMK EUREKA



USA.gov is the U.S. government's official web portal to all federal, state and local government web resources and services.